sensor_id;sensor_type;location;lat;lon;timestamp;temperature;humidity
22153;DHT22;11242;50.536;12.688;2022-10-16T00:00:18;14.20;99.90
22153;DHT22;11242;50.536;12.688;2022-10-16T00:02:44;14.20;99.90
22153;DHT22;11242;50.536;12.688;2022-10-16T00:05:10;14.20;99.90
22153;DHT22;11242;50.536;12.688;2022-10-16T00:07:35;14.20;99.90
22153;DHT22;11242;50.536;12.688;2022-10-16T00:10:01;14.10;99.90
22153;DHT22;11242;50.536;12.688;2022-10-16T00:12:26;14.20;99.90
22153;DHT22;11242;50.536;12.688;2022-10-16T00:14:52;14.20;99.90
22153;DHT22;11242;50.536;12.688;2022-10-16T00:17:18;14.10;99.90
22153;DHT22;11242;50.536;12.688;2022-10-16T00:19:44;14.10;99.90
22153;DHT22;11242;50.536;12.688;2022-10-16T00:22:09;14.00;99.90
22153;DHT22;11242;50.536;12.688;2022-10-16T00:24:36;14.10;99.90
22153;DHT22;11242;50.536;12.688;2022-10-16T00:27:01;14.20;99.90
22153;DHT22;11242;50.536;12.688;2022-10-16T00:29:27;14.30;99.90
22153;DHT22;11242;50.536;12.688;2022-10-16T00:31:53;14.20;99.90
22153;DHT22;11242;50.536;12.688;2022-10-16T00:34:19;14.30;99.90
22153;DHT22;11242;50.536;12.688;2022-10-16T00:36:44;14.30;99.90
22153;DHT22;11242;50.536;12.688;2022-10-16T00:39:10;14.30;99.90
22153;DHT22;11242;50.536;12.688;2022-10-16T00:41:35;14.30;99.90
22153;DHT22;11242;50.536;12.688;2022-10-16T00:44:40;14.40;99.90
22153;DHT22;11242;50.536;12.688;2022-10-16T00:46:50;14.40;99.90
22153;DHT22;11242;50.536;12.688;2022-10-16T00:49:17;14.50;99.90
22153;DHT22;11242;50.536;12.688;2022-10-16T00:56:43;14.50;99.90
22153;DHT22;11242;50.536;12.688;2022-10-16T00:59:25;14.40;99.90
22153;DHT22;11242;50.536;12.688;2022-10-16T01:01:53;14.40;99.90
22153;DHT22;11242;50.536;12.688;2022-10-16T01:04:19;14.40;99.90
22153;DHT22;11242;50.536;12.688;2022-10-16T01:07:00;14.50;99.90
22153;DHT22;11242;50.536;12.688;2022-10-16T01:09:40;14.50;99.90
22153;DHT22;11242;50.536;12.688;2022-10-16T01:15:10;14.60;99.90
22153;DHT22;11242;50.536;12.688;2022-10-16T01:23:10;14.60;99.90
22153;DHT22;11242;50.536;12.688;2022-10-16T01:28:06;14.70;99.90
22153;DHT22;11242;50.536;12.688;2022-10-16T01:30:35;14.70;99.90
22153;DHT22;11242;50.536;12.688;2022-10-16T01:33:14;14.70;99.90
22153;DHT22;11242;50.536;12.688;2022-10-16T01:35:46;14.70;99.90
22153;DHT22;11242;50.536;12.688;2022-10-16T01:38:25;14.70;99.90
22153;DHT22;11242;50.536;12.688;2022-10-16T01:41:01;14.60;99.90
22153;DHT22;11242;50.536;12.688;2022-10-16T01:43:35;14.50;99.90
22153;DHT22;11242;50.536;12.688;2022-10-16T01:46:02;14.40;99.90
22153;DHT22;11242;50.536;12.688;2022-10-16T01:48:28;14.30;99.90
22153;DHT22;11242;50.536;12.688;2022-10-16T01:51:04;14.20;99.90
22153;DHT22;11242;50.536;12.688;2022-10-16T01:53:31;14.20;99.90
22153;DHT22;11242;50.536;12.688;2022-10-16T01:55:58;14.10;99.90
22153;DHT22;11242;50.536;12.688;2022-10-16T01:58:25;14.10;99.90
22153;DHT22;11242;50.536;12.688;2022-10-16T02:00:53;14.10;99.90
22153;DHT22;11242;50.536;12.688;2022-10-16T02:03:22;14.10;99.90
22153;DHT22;11242;50.536;12.688;2022-10-16T02:05:53;14.30;99.90
22153;DHT22;11242;50.536;12.688;2022-10-16T02:08:20;14.40;99.90
22153;DHT22;11242;50.536;12.688;2022-10-16T02:10:46;14.50;99.90
22153;DHT22;11242;50.536;12.688;2022-10-16T02:13:17;14.50;99.90
22153;DHT22;11242;50.536;12.688;2022-10-16T02:15:43;14.40;99.90
22153;DHT22;11242;50.536;12.688;2022-10-16T02:18:09;14.40;99.90
22153;DHT22;11242;50.536;12.688;2022-10-16T02:21:22;14.50;99.90
22153;DHT22;11242;50.536;12.688;2022-10-16T02:23:54;14.50;99.90
22153;DHT22;11242;50.536;12.688;2022-10-16T02:26:34;14.60;99.90
22153;DHT22;11242;50.536;12.688;2022-10-16T02:29:07;14.70;99.90
22153;DHT22;11242;50.536;12.688;2022-10-16T02:31:35;14.70;99.90
22153;DHT22;11242;50.536;12.688;2022-10-16T02:34:04;14.70;99.90
22153;DHT22;11242;50.536;12.688;2022-10-16T02:36:32;14.70;99.90
22153;DHT22;11242;50.536;12.688;2022-10-16T02:38:59;14.70;99.90
22153;DHT22;11242;50.536;12.688;2022-10-16T02:41:26;14.60;99.90
22153;DHT22;11242;50.536;12.688;2022-10-16T02:43:52;14.50;99.90
22153;DHT22;11242;50.536;12.688;2022-10-16T02:46:20;14.50;99.90
22153;DHT22;11242;50.536;12.688;2022-10-16T02:48:46;14.40;99.90
22153;DHT22;11242;50.536;12.688;2022-10-16T02:51:11;14.40;99.90
22153;DHT22;11242;50.536;12.688;2022-10-16T02:53:37;14.30;99.90
22153;DHT22;11242;50.536;12.688;2022-10-16T02:56:03;14.30;99.90
22153;DHT22;11242;50.536;12.688;2022-10-16T02:58:29;14.20;99.90
22153;DHT22;11242;50.536;12.688;2022-10-16T03:00:55;14.10;99.90
22153;DHT22;11242;50.536;12.688;2022-10-16T03:03:21;14.10;99.90
22153;DHT22;11242;50.536;12.688;2022-10-16T03:05:46;14.00;99.90
22153;DHT22;11242;50.536;12.688;2022-10-16T03:08:13;13.90;99.90
22153;DHT22;11242;50.536;12.688;2022-10-16T03:10:38;13.80;99.90
22153;DHT22;11242;50.536;12.688;2022-10-16T03:13:04;13.70;99.90
22153;DHT22;11242;50.536;12.688;2022-10-16T03:15:30;13.70;99.90
22153;DHT22;11242;50.536;12.688;2022-10-16T03:17:59;13.70;99.90
22153;DHT22;11242;50.536;12.688;2022-10-16T03:20:25;13.70;99.90
22153;DHT22;11242;50.536;12.688;2022-10-16T03:22:51;13.80;99.90
22153;DHT22;11242;50.536;12.688;2022-10-16T03:25:16;13.80;99.90
22153;DHT22;11242;50.536;12.688;2022-10-16T03:27:42;13.90;99.90
22153;DHT22;11242;50.536;12.688;2022-10-16T03:30:08;13.90;99.90
22153;DHT22;11242;50.536;12.688;2022-10-16T03:32:34;14.00;99.90
22153;DHT22;11242;50.536;12.688;2022-10-16T03:34:59;14.00;99.90
22153;DHT22;11242;50.536;12.688;2022-10-16T03:37:25;14.10;99.90
22153;DHT22;11242;50.536;12.688;2022-10-16T03:39:51;14.10;99.90
22153;DHT22;11242;50.536;12.688;2022-10-16T03:42:17;14.20;99.90
22153;DHT22;11242;50.536;12.688;2022-10-16T03:44:42;14.20;99.90
22153;DHT22;11242;50.536;12.688;2022-10-16T03:47:08;14.20;99.90
22153;DHT22;11242;50.536;12.688;2022-10-16T03:49:33;14.20;99.90
22153;DHT22;11242;50.536;12.688;2022-10-16T03:51:59;14.20;99.90
22153;DHT22;11242;50.536;12.688;2022-10-16T03:54:24;14.20;99.90
22153;DHT22;11242;50.536;12.688;2022-10-16T03:56:50;14.20;99.90
22153;DHT22;11242;50.536;12.688;2022-10-16T03:59:16;14.20;99.90
22153;DHT22;11242;50.536;12.688;2022-10-16T04:01:41;14.20;99.90
22153;DHT22;11242;50.536;12.688;2022-10-16T04:04:07;14.20;99.90
22153;DHT22;11242;50.536;12.688;2022-10-16T04:06:32;14.20;99.90
22153;DHT22;11242;50.536;12.688;2022-10-16T04:08:58;14.20;99.90
22153;DHT22;11242;50.536;12.688;2022-10-16T04:11:23;14.10;99.90
22153;DHT22;11242;50.536;12.688;2022-10-16T04:13:49;14.10;99.90
22153;DHT22;11242;50.536;12.688;2022-10-16T04:16:15;14.10;99.90
22153;DHT22;11242;50.536;12.688;2022-10-16T04:18:40;14.20;99.90
22153;DHT22;11242;50.536;12.688;2022-10-16T04:21:06;14.30;99.90
22153;DHT22;11242;50.536;12.688;2022-10-16T04:23:32;14.20;99.90
22153;DHT22;11242;50.536;12.688;2022-10-16T04:25:59;14.20;99.90
22153;DHT22;11242;50.536;12.688;2022-10-16T04:28:24;14.30;99.90
22153;DHT22;11242;50.536;12.688;2022-10-16T04:30:50;14.30;99.90
22153;DHT22;11242;50.536;12.688;2022-10-16T04:33:16;14.40;99.90
22153;DHT22;11242;50.536;12.688;2022-10-16T04:35:41;14.40;99.90
22153;DHT22;11242;50.536;12.688;2022-10-16T04:38:07;14.50;99.90
22153;DHT22;11242;50.536;12.688;2022-10-16T04:40:32;14.40;99.90
22153;DHT22;11242;50.536;12.688;2022-10-16T04:42:59;14.40;99.90
22153;DHT22;11242;50.536;12.688;2022-10-16T04:45:25;14.30;99.90
22153;DHT22;11242;50.536;12.688;2022-10-16T04:47:50;14.20;99.90
22153;DHT22;11242;50.536;12.688;2022-10-16T04:50:16;14.10;99.90
22153;DHT22;11242;50.536;12.688;2022-10-16T04:53:00;14.00;99.90
22153;DHT22;11242;50.536;12.688;2022-10-16T04:55:25;14.00;99.90
22153;DHT22;11242;50.536;12.688;2022-10-16T04:57:51;14.00;99.90
22153;DHT22;11242;50.536;12.688;2022-10-16T05:00:17;14.00;99.90
22153;DHT22;11242;50.536;12.688;2022-10-16T05:02:42;14.10;99.90
22153;DHT22;11242;50.536;12.688;2022-10-16T05:05:08;14.00;99.90
22153;DHT22;11242;50.536;12.688;2022-10-16T05:07:34;14.00;99.90
22153;DHT22;11242;50.536;12.688;2022-10-16T05:09:59;14.00;99.90
22153;DHT22;11242;50.536;12.688;2022-10-16T05:12:25;13.90;99.90
22153;DHT22;11242;50.536;12.688;2022-10-16T05:14:50;13.80;99.90
22153;DHT22;11242;50.536;12.688;2022-10-16T05:17:16;13.70;99.90
22153;DHT22;11242;50.536;12.688;2022-10-16T05:19:42;13.80;99.90
22153;DHT22;11242;50.536;12.688;2022-10-16T05:22:07;13.80;99.90
22153;DHT22;11242;50.536;12.688;2022-10-16T05:24:33;13.80;99.90
22153;DHT22;11242;50.536;12.688;2022-10-16T05:26:58;13.80;99.90
22153;DHT22;11242;50.536;12.688;2022-10-16T05:29:24;13.90;99.90
22153;DHT22;11242;50.536;12.688;2022-10-16T05:31:51;13.90;99.90
22153;DHT22;11242;50.536;12.688;2022-10-16T05:34:17;13.90;99.90
22153;DHT22;11242;50.536;12.688;2022-10-16T05:36:42;13.90;99.90
22153;DHT22;11242;50.536;12.688;2022-10-16T05:39:11;14.00;99.90
22153;DHT22;11242;50.536;12.688;2022-10-16T05:41:36;14.00;99.90
22153;DHT22;11242;50.536;12.688;2022-10-16T05:44:05;14.10;99.90
22153;DHT22;11242;50.536;12.688;2022-10-16T05:46:31;14.10;99.90
22153;DHT22;11242;50.536;12.688;2022-10-16T05:48:57;14.20;99.90
22153;DHT22;11242;50.536;12.688;2022-10-16T05:51:23;14.30;99.90
22153;DHT22;11242;50.536;12.688;2022-10-16T05:53:49;14.30;99.90
22153;DHT22;11242;50.536;12.688;2022-10-16T05:56:15;14.50;99.90
22153;DHT22;11242;50.536;12.688;2022-10-16T05:58:41;14.50;99.90
22153;DHT22;11242;50.536;12.688;2022-10-16T06:01:12;14.60;99.90
22153;DHT22;11242;50.536;12.688;2022-10-16T06:03:38;14.60;99.90
22153;DHT22;11242;50.536;12.688;2022-10-16T06:06:08;14.70;99.90
22153;DHT22;11242;50.536;12.688;2022-10-16T06:08:34;14.70;99.90
22153;DHT22;11242;50.536;12.688;2022-10-16T06:11:04;14.80;99.90
22153;DHT22;11242;50.536;12.688;2022-10-16T06:13:31;14.80;99.90
22153;DHT22;11242;50.536;12.688;2022-10-16T06:16:00;14.90;99.90
22153;DHT22;11242;50.536;12.688;2022-10-16T06:18:27;14.90;99.90
22153;DHT22;11242;50.536;12.688;2022-10-16T06:20:54;15.00;99.90
22153;DHT22;11242;50.536;12.688;2022-10-16T06:23:19;15.00;99.90
22153;DHT22;11242;50.536;12.688;2022-10-16T06:25:45;15.10;99.90
22153;DHT22;11242;50.536;12.688;2022-10-16T06:28:11;15.10;99.90
22153;DHT22;11242;50.536;12.688;2022-10-16T06:30:36;15.10;99.90
22153;DHT22;11242;50.536;12.688;2022-10-16T06:33:02;15.10;99.90
22153;DHT22;11242;50.536;12.688;2022-10-16T06:35:27;15.20;99.90
22153;DHT22;11242;50.536;12.688;2022-10-16T06:37:54;15.20;99.90
22153;DHT22;11242;50.536;12.688;2022-10-16T06:40:20;15.20;99.90
22153;DHT22;11242;50.536;12.688;2022-10-16T06:42:46;15.30;99.90
22153;DHT22;11242;50.536;12.688;2022-10-16T06:45:11;15.40;99.90
22153;DHT22;11242;50.536;12.688;2022-10-16T06:47:38;15.40;99.90
22153;DHT22;11242;50.536;12.688;2022-10-16T06:50:04;15.40;99.90
22153;DHT22;11242;50.536;12.688;2022-10-16T06:52:31;15.40;99.90
22153;DHT22;11242;50.536;12.688;2022-10-16T06:54:57;15.50;99.90
22153;DHT22;11242;50.536;12.688;2022-10-16T06:57:23;15.50;99.90
22153;DHT22;11242;50.536;12.688;2022-10-16T06:59:48;15.60;99.90
22153;DHT22;11242;50.536;12.688;2022-10-16T07:02:14;15.60;99.90
22153;DHT22;11242;50.536;12.688;2022-10-16T07:04:39;15.60;99.90
22153;DHT22;11242;50.536;12.688;2022-10-16T07:07:05;15.60;99.90
22153;DHT22;11242;50.536;12.688;2022-10-16T07:09:30;15.70;99.90
22153;DHT22;11242;50.536;12.688;2022-10-16T07:11:56;15.80;99.90
22153;DHT22;11242;50.536;12.688;2022-10-16T07:14:22;16.00;99.90
22153;DHT22;11242;50.536;12.688;2022-10-16T07:16:48;16.10;99.90
22153;DHT22;11242;50.536;12.688;2022-10-16T07:19:14;16.30;99.90
22153;DHT22;11242;50.536;12.688;2022-10-16T07:21:42;16.40;99.90
22153;DHT22;11242;50.536;12.688;2022-10-16T07:24:13;16.40;99.90
22153;DHT22;11242;50.536;12.688;2022-10-16T07:26:39;16.50;99.90
22153;DHT22;11242;50.536;12.688;2022-10-16T07:29:11;16.70;99.90
22153;DHT22;11242;50.536;12.688;2022-10-16T07:31:37;17.60;99.90
22153;DHT22;11242;50.536;12.688;2022-10-16T07:34:03;17.90;99.90
22153;DHT22;11242;50.536;12.688;2022-10-16T07:36:29;17.60;99.90
22153;DHT22;11242;50.536;12.688;2022-10-16T07:38:55;17.40;99.90
22153;DHT22;11242;50.536;12.688;2022-10-16T07:41:21;17.30;99.90
22153;DHT22;11242;50.536;12.688;2022-10-16T07:43:47;17.40;99.90
22153;DHT22;11242;50.536;12.688;2022-10-16T07:46:13;17.40;99.90
22153;DHT22;11242;50.536;12.688;2022-10-16T07:48:40;17.50;99.90
22153;DHT22;11242;50.536;12.688;2022-10-16T07:51:06;17.60;99.90
22153;DHT22;11242;50.536;12.688;2022-10-16T07:53:33;17.50;99.90
22153;DHT22;11242;50.536;12.688;2022-10-16T07:56:06;17.40;99.90
22153;DHT22;11242;50.536;12.688;2022-10-16T07:58:33;17.30;99.90
22153;DHT22;11242;50.536;12.688;2022-10-16T08:01:06;17.30;99.90
22153;DHT22;11242;50.536;12.688;2022-10-16T08:03:32;17.20;99.90
22153;DHT22;11242;50.536;12.688;2022-10-16T08:05:58;17.20;99.90
22153;DHT22;11242;50.536;12.688;2022-10-16T08:08:24;17.10;99.90
22153;DHT22;11242;50.536;12.688;2022-10-16T08:10:50;17.10;99.90
22153;DHT22;11242;50.536;12.688;2022-10-16T08:13:15;17.10;99.90
22153;DHT22;11242;50.536;12.688;2022-10-16T08:15:42;17.10;99.90
22153;DHT22;11242;50.536;12.688;2022-10-16T08:18:09;17.00;99.90
22153;DHT22;11242;50.536;12.688;2022-10-16T08:20:35;16.90;99.90
22153;DHT22;11242;50.536;12.688;2022-10-16T08:23:01;16.90;99.90
22153;DHT22;11242;50.536;12.688;2022-10-16T08:25:27;16.90;99.90
22153;DHT22;11242;50.536;12.688;2022-10-16T08:27:53;17.00;99.90
22153;DHT22;11242;50.536;12.688;2022-10-16T08:30:21;17.10;99.90
22153;DHT22;11242;50.536;12.688;2022-10-16T08:32:47;17.30;99.90
22153;DHT22;11242;50.536;12.688;2022-10-16T08:35:13;17.40;99.90
22153;DHT22;11242;50.536;12.688;2022-10-16T08:37:39;17.70;99.90
22153;DHT22;11242;50.536;12.688;2022-10-16T08:40:07;17.90;99.90
22153;DHT22;11242;50.536;12.688;2022-10-16T08:45:27;17.90;99.90
22153;DHT22;11242;50.536;12.688;2022-10-16T08:48:18;17.90;99.90
22153;DHT22;11242;50.536;12.688;2022-10-16T08:50:47;17.80;99.90
22153;DHT22;11242;50.536;12.688;2022-10-16T08:53:24;17.80;99.90
22153;DHT22;11242;50.536;12.688;2022-10-16T08:55:52;17.80;99.90
22153;DHT22;11242;50.536;12.688;2022-10-16T08:58:21;17.90;99.90
22153;DHT22;11242;50.536;12.688;2022-10-16T09:00:49;18.00;99.90
22153;DHT22;11242;50.536;12.688;2022-10-16T09:11:42;18.50;99.90
22153;DHT22;11242;50.536;12.688;2022-10-16T09:19:48;19.30;99.90
22153;DHT22;11242;50.536;12.688;2022-10-16T09:22:17;19.00;99.90
22153;DHT22;11242;50.536;12.688;2022-10-16T09:24:43;18.70;99.90
22153;DHT22;11242;50.536;12.688;2022-10-16T09:27:11;18.60;99.90
22153;DHT22;11242;50.536;12.688;2022-10-16T09:29:38;18.60;99.90
22153;DHT22;11242;50.536;12.688;2022-10-16T09:32:30;18.60;99.90
22153;DHT22;11242;50.536;12.688;2022-10-16T09:34:57;18.70;99.90
22153;DHT22;11242;50.536;12.688;2022-10-16T09:37:24;18.90;99.90
22153;DHT22;11242;50.536;12.688;2022-10-16T09:39:52;18.90;99.90
22153;DHT22;11242;50.536;12.688;2022-10-16T09:42:19;19.00;99.90
22153;DHT22;11242;50.536;12.688;2022-10-16T09:44:51;19.00;99.90
22153;DHT22;11242;50.536;12.688;2022-10-16T09:47:22;19.10;99.90
22153;DHT22;11242;50.536;12.688;2022-10-16T09:52:23;19.00;99.90
22153;DHT22;11242;50.536;12.688;2022-10-16T09:54:53;19.10;99.90
22153;DHT22;11242;50.536;12.688;2022-10-16T09:57:21;18.90;99.90
22153;DHT22;11242;50.536;12.688;2022-10-16T09:59:48;18.80;99.90
22153;DHT22;11242;50.536;12.688;2022-10-16T10:02:16;18.70;99.90
22153;DHT22;11242;50.536;12.688;2022-10-16T10:04:49;18.80;99.90
22153;DHT22;11242;50.536;12.688;2022-10-16T10:07:27;18.80;99.90
22153;DHT22;11242;50.536;12.688;2022-10-16T10:09:55;18.80;99.90
22153;DHT22;11242;50.536;12.688;2022-10-16T10:12:24;18.90;99.90
22153;DHT22;11242;50.536;12.688;2022-10-16T10:14:55;19.00;99.90
22153;DHT22;11242;50.536;12.688;2022-10-16T10:17:24;19.10;99.90
22153;DHT22;11242;50.536;12.688;2022-10-16T10:20:00;18.90;99.90
22153;DHT22;11242;50.536;12.688;2022-10-16T10:22:40;18.70;99.90
22153;DHT22;11242;50.536;12.688;2022-10-16T10:35:25;19.40;99.90
22153;DHT22;11242;50.536;12.688;2022-10-16T10:38:11;19.50;99.90
22153;DHT22;11242;50.536;12.688;2022-10-16T10:40:50;19.90;99.90
22153;DHT22;11242;50.536;12.688;2022-10-16T10:43:46;20.40;99.90
22153;DHT22;11242;50.536;12.688;2022-10-16T10:46:29;20.60;99.90
22153;DHT22;11242;50.536;12.688;2022-10-16T10:49:28;20.80;99.90
22153;DHT22;11242;50.536;12.688;2022-10-16T10:57:23;20.10;99.90
22153;DHT22;11242;50.536;12.688;2022-10-16T11:02:57;20.30;99.90
22153;DHT22;11242;50.536;12.688;2022-10-16T11:05:35;20.70;99.90
22153;DHT22;11242;50.536;12.688;2022-10-16T11:11:02;21.10;99.90
22153;DHT22;11242;50.536;12.688;2022-10-16T11:13:33;21.20;99.90
22153;DHT22;11242;50.536;12.688;2022-10-16T11:21:24;20.50;99.90
22153;DHT22;11242;50.536;12.688;2022-10-16T11:23:57;20.30;99.90
22153;DHT22;11242;50.536;12.688;2022-10-16T11:26:28;20.10;99.90
22153;DHT22;11242;50.536;12.688;2022-10-16T11:28:56;20.20;99.90
22153;DHT22;11242;50.536;12.688;2022-10-16T11:31:41;20.50;99.90
22153;DHT22;11242;50.536;12.688;2022-10-16T11:34:32;20.70;99.90
22153;DHT22;11242;50.536;12.688;2022-10-16T11:37:06;20.90;99.90
22153;DHT22;11242;50.536;12.688;2022-10-16T11:39:34;21.20;99.90
22153;DHT22;11242;50.536;12.688;2022-10-16T11:42:13;21.30;99.90
22153;DHT22;11242;50.536;12.688;2022-10-16T11:44:56;21.70;99.90
22153;DHT22;11242;50.536;12.688;2022-10-16T11:47:33;21.70;99.90
22153;DHT22;11242;50.536;12.688;2022-10-16T11:55:39;21.40;99.90
22153;DHT22;11242;50.536;12.688;2022-10-16T11:58:59;21.20;99.90
22153;DHT22;11242;50.536;12.688;2022-10-16T12:06:42;21.60;99.90
22153;DHT22;11242;50.536;12.688;2022-10-16T12:09:22;21.30;99.90
22153;DHT22;11242;50.536;12.688;2022-10-16T12:11:49;21.60;99.90
22153;DHT22;11242;50.536;12.688;2022-10-16T12:16:56;21.60;99.90
22153;DHT22;11242;50.536;12.688;2022-10-16T12:19:24;21.60;99.90
22153;DHT22;11242;50.536;12.688;2022-10-16T12:21:51;21.80;99.90
22153;DHT22;11242;50.536;12.688;2022-10-16T12:24:27;22.00;99.90
22153;DHT22;11242;50.536;12.688;2022-10-16T12:26:55;22.00;99.90
22153;DHT22;11242;50.536;12.688;2022-10-16T12:31:52;22.10;99.90
22153;DHT22;11242;50.536;12.688;2022-10-16T12:34:34;21.90;99.90
22153;DHT22;11242;50.536;12.688;2022-10-16T12:37:11;21.70;99.90
22153;DHT22;11242;50.536;12.688;2022-10-16T12:39:38;21.70;99.90
22153;DHT22;11242;50.536;12.688;2022-10-16T12:42:50;21.40;99.90
22153;DHT22;11242;50.536;12.688;2022-10-16T12:44:51;21.30;99.90
22153;DHT22;11242;50.536;12.688;2022-10-16T12:49:58;20.70;99.90
22153;DHT22;11242;50.536;12.688;2022-10-16T12:52:38;20.40;99.90
22153;DHT22;11242;50.536;12.688;2022-10-16T12:55:06;19.90;99.90
22153;DHT22;11242;50.536;12.688;2022-10-16T12:58:04;19.50;99.90
22153;DHT22;11242;50.536;12.688;2022-10-16T13:00:44;19.40;99.90
22153;DHT22;11242;50.536;12.688;2022-10-16T13:06:23;19.30;99.90
22153;DHT22;11242;50.536;12.688;2022-10-16T13:27:56;19.60;99.90
22153;DHT22;11242;50.536;12.688;2022-10-16T13:30:26;19.60;99.90
22153;DHT22;11242;50.536;12.688;2022-10-16T13:33:01;19.50;99.90
22153;DHT22;11242;50.536;12.688;2022-10-16T13:35:30;19.40;99.90
22153;DHT22;11242;50.536;12.688;2022-10-16T13:40:36;19.20;99.90
22153;DHT22;11242;50.536;12.688;2022-10-16T13:43:02;19.20;99.90
22153;DHT22;11242;50.536;12.688;2022-10-16T13:45:28;19.30;99.90
22153;DHT22;11242;50.536;12.688;2022-10-16T13:48:09;19.40;99.90
22153;DHT22;11242;50.536;12.688;2022-10-16T13:50:37;19.50;99.90
22153;DHT22;11242;50.536;12.688;2022-10-16T13:53:07;19.60;99.90
22153;DHT22;11242;50.536;12.688;2022-10-16T13:55:36;19.70;99.90
22153;DHT22;11242;50.536;12.688;2022-10-16T13:58:10;19.80;99.90
22153;DHT22;11242;50.536;12.688;2022-10-16T14:00:37;19.80;99.90
22153;DHT22;11242;50.536;12.688;2022-10-16T14:03:11;19.90;99.90
22153;DHT22;11242;50.536;12.688;2022-10-16T14:05:46;19.90;99.90
22153;DHT22;11242;50.536;12.688;2022-10-16T14:08:12;19.80;99.90
22153;DHT22;11242;50.536;12.688;2022-10-16T14:10:38;19.70;99.90
22153;DHT22;11242;50.536;12.688;2022-10-16T14:13:06;19.70;99.90
22153;DHT22;11242;50.536;12.688;2022-10-16T14:15:34;19.70;99.90
22153;DHT22;11242;50.536;12.688;2022-10-16T14:18:00;19.70;99.90
22153;DHT22;11242;50.536;12.688;2022-10-16T14:20:29;19.80;99.90
22153;DHT22;11242;50.536;12.688;2022-10-16T14:23:00;20.10;99.90
22153;DHT22;11242;50.536;12.688;2022-10-16T14:25:29;20.30;99.90
22153;DHT22;11242;50.536;12.688;2022-10-16T14:27:59;20.20;99.90
22153;DHT22;11242;50.536;12.688;2022-10-16T14:30:26;20.20;99.90
22153;DHT22;11242;50.536;12.688;2022-10-16T14:36:11;19.60;99.90
22153;DHT22;11242;50.536;12.688;2022-10-16T14:39:14;19.50;99.90
22153;DHT22;11242;50.536;12.688;2022-10-16T14:41:47;19.50;99.90
22153;DHT22;11242;50.536;12.688;2022-10-16T14:44:13;19.40;99.90
22153;DHT22;11242;50.536;12.688;2022-10-16T14:46:41;19.20;99.90
22153;DHT22;11242;50.536;12.688;2022-10-16T14:51:37;19.00;99.90
22153;DHT22;11242;50.536;12.688;2022-10-16T14:54:03;18.90;99.90
22153;DHT22;11242;50.536;12.688;2022-10-16T14:56:55;18.80;99.90
22153;DHT22;11242;50.536;12.688;2022-10-16T14:59:28;18.70;99.90
22153;DHT22;11242;50.536;12.688;2022-10-16T15:01:56;18.60;99.90
22153;DHT22;11242;50.536;12.688;2022-10-16T15:04:21;18.50;99.90
22153;DHT22;11242;50.536;12.688;2022-10-16T15:06:47;18.40;99.90
22153;DHT22;11242;50.536;12.688;2022-10-16T15:09:13;18.30;99.90
22153;DHT22;11242;50.536;12.688;2022-10-16T15:11:38;18.20;99.90
22153;DHT22;11242;50.536;12.688;2022-10-16T15:14:04;18.20;99.90
22153;DHT22;11242;50.536;12.688;2022-10-16T15:16:30;18.10;99.90
22153;DHT22;11242;50.536;12.688;2022-10-16T15:18:56;18.00;99.90
22153;DHT22;11242;50.536;12.688;2022-10-16T15:21:25;18.00;99.90
22153;DHT22;11242;50.536;12.688;2022-10-16T15:23:52;17.90;99.90
22153;DHT22;11242;50.536;12.688;2022-10-16T15:26:18;17.80;99.90
22153;DHT22;11242;50.536;12.688;2022-10-16T15:28:43;17.70;99.90
22153;DHT22;11242;50.536;12.688;2022-10-16T15:31:09;17.60;99.90
22153;DHT22;11242;50.536;12.688;2022-10-16T15:33:35;17.50;99.90
22153;DHT22;11242;50.536;12.688;2022-10-16T15:36:01;17.40;99.90
22153;DHT22;11242;50.536;12.688;2022-10-16T15:38:28;17.40;99.90
22153;DHT22;11242;50.536;12.688;2022-10-16T15:40:54;17.30;99.90
22153;DHT22;11242;50.536;12.688;2022-10-16T15:43:20;17.20;99.90
22153;DHT22;11242;50.536;12.688;2022-10-16T15:46:06;17.10;99.90
22153;DHT22;11242;50.536;12.688;2022-10-16T15:48:32;17.00;99.90
22153;DHT22;11242;50.536;12.688;2022-10-16T15:50:59;17.00;99.90
22153;DHT22;11242;50.536;12.688;2022-10-16T15:53:25;16.90;99.90
22153;DHT22;11242;50.536;12.688;2022-10-16T15:55:51;16.80;99.90
22153;DHT22;11242;50.536;12.688;2022-10-16T15:58:17;16.60;99.90
22153;DHT22;11242;50.536;12.688;2022-10-16T16:00:43;16.60;99.90
22153;DHT22;11242;50.536;12.688;2022-10-16T16:03:09;16.50;99.90
22153;DHT22;11242;50.536;12.688;2022-10-16T16:05:38;16.40;99.90
22153;DHT22;11242;50.536;12.688;2022-10-16T16:08:04;16.30;99.90
22153;DHT22;11242;50.536;12.688;2022-10-16T16:10:30;16.20;99.90
22153;DHT22;11242;50.536;12.688;2022-10-16T16:12:55;16.10;99.90
22153;DHT22;11242;50.536;12.688;2022-10-16T16:15:21;15.90;99.90
22153;DHT22;11242;50.536;12.688;2022-10-16T16:17:47;15.80;99.90
22153;DHT22;11242;50.536;12.688;2022-10-16T16:20:13;15.60;99.90
22153;DHT22;11242;50.536;12.688;2022-10-16T16:22:39;15.50;99.90
22153;DHT22;11242;50.536;12.688;2022-10-16T16:25:05;15.40;99.90
22153;DHT22;11242;50.536;12.688;2022-10-16T16:27:31;15.30;99.90
22153;DHT22;11242;50.536;12.688;2022-10-16T16:29:59;15.20;99.90
22153;DHT22;11242;50.536;12.688;2022-10-16T16:32:25;15.20;99.90
22153;DHT22;11242;50.536;12.688;2022-10-16T16:34:51;15.10;99.90
22153;DHT22;11242;50.536;12.688;2022-10-16T16:37:17;15.00;99.90
22153;DHT22;11242;50.536;12.688;2022-10-16T16:39:42;15.00;99.90
22153;DHT22;11242;50.536;12.688;2022-10-16T16:42:08;14.90;99.90
22153;DHT22;11242;50.536;12.688;2022-10-16T16:44:35;14.70;99.90
22153;DHT22;11242;50.536;12.688;2022-10-16T16:47:02;14.70;99.90
22153;DHT22;11242;50.536;12.688;2022-10-16T16:49:28;14.60;99.90
22153;DHT22;11242;50.536;12.688;2022-10-16T16:51:54;14.50;99.90
22153;DHT22;11242;50.536;12.688;2022-10-16T16:54:19;14.50;99.90
22153;DHT22;11242;50.536;12.688;2022-10-16T16:56:45;14.40;99.90
22153;DHT22;11242;50.536;12.688;2022-10-16T16:59:16;14.30;99.90
22153;DHT22;11242;50.536;12.688;2022-10-16T17:01:43;14.20;99.90
22153;DHT22;11242;50.536;12.688;2022-10-16T17:04:09;14.20;99.90
22153;DHT22;11242;50.536;12.688;2022-10-16T17:06:36;14.20;99.90
22153;DHT22;11242;50.536;12.688;2022-10-16T17:09:03;14.10;99.90
22153;DHT22;11242;50.536;12.688;2022-10-16T17:11:29;14.10;99.90
22153;DHT22;11242;50.536;12.688;2022-10-16T17:13:56;14.00;99.90
22153;DHT22;11242;50.536;12.688;2022-10-16T17:16:25;13.90;99.90